createdAt,value
2023-02-21T00:04:56.864Z,4.17
2023-02-21T00:07:42.166Z,3.70
2023-02-21T00:10:28.478Z,3.47
2023-02-21T00:13:13.554Z,2.53
2023-02-21T00:15:58.799Z,2.70
2023-02-21T00:18:43.528Z,6.00
2023-02-21T00:21:28.742Z,3.37
2023-02-21T00:24:13.652Z,2.50
2023-02-21T00:26:58.792Z,2.17
2023-02-21T00:29:44.772Z,2.43
2023-02-21T00:32:29.859Z,1.77
2023-02-21T00:35:15.130Z,2.87
2023-02-21T00:38:00.262Z,2.13
2023-02-21T00:40:45.508Z,2.07
2023-02-21T00:43:30.630Z,3.83
2023-02-21T00:46:16.488Z,4.77
2023-02-21T00:49:01.765Z,3.20
2023-02-21T00:51:46.946Z,4.10
2023-02-21T00:54:32.090Z,2.77
2023-02-21T00:57:17.082Z,1.67
2023-02-21T01:00:02.225Z,4.93
2023-02-21T01:02:47.311Z,2.57
2023-02-21T01:05:32.353Z,3.47
2023-02-21T01:08:17.368Z,3.03
2023-02-21T01:11:02.246Z,3.00
2023-02-21T01:13:50.577Z,3.00
2023-02-21T01:16:36.117Z,3.00
2023-02-21T01:19:20.811Z,1.67
2023-02-21T01:22:08.044Z,4.70
2023-02-21T01:24:53.294Z,4.80
2023-02-21T01:27:38.486Z,3.80
2023-02-21T01:30:23.751Z,3.73
2023-02-21T01:33:08.836Z,2.90
2023-02-21T01:35:53.783Z,3.67
2023-02-21T01:38:40.234Z,6.80
2023-02-21T01:41:25.356Z,2.47
2023-02-21T01:44:49.504Z,2.53
2023-02-21T01:47:34.669Z,5.37
2023-02-21T01:50:22.206Z,3.30
2023-02-21T01:53:08.722Z,5.27
2023-02-21T01:55:57.644Z,2.53
2023-02-21T01:58:45.362Z,8.20
2023-02-21T02:01:39.211Z,2.40
2023-02-21T02:04:24.399Z,2.13
2023-02-21T02:07:10.054Z,3.23
2023-02-21T02:09:55.353Z,4.40
2023-02-21T02:12:36.843Z,5.30
2023-02-21T02:15:18.558Z,7.23
2023-02-21T02:18:00.319Z,4.63
2023-02-21T02:20:56.034Z,3.70
2023-02-21T02:23:31.479Z,3.13
2023-02-21T02:26:16.758Z,5.37
2023-02-21T02:29:05.016Z,2.73
2023-02-21T02:31:45.851Z,1.83
2023-02-21T02:34:40.205Z,2.70
2023-02-21T02:37:18.954Z,3.83
2023-02-21T02:39:51.465Z,5.40
2023-02-21T02:42:42.251Z,4.17
2023-02-21T02:45:33.613Z,12.50
2023-02-21T02:48:10.481Z,6.47
2023-02-21T02:50:39.243Z,2.63
2023-02-21T02:53:06.266Z,4.80
2023-02-21T02:55:43.143Z,2.70
2023-02-21T02:58:12.550Z,4.40
2023-02-21T03:00:45.792Z,7.60
2023-02-21T03:03:43.205Z,5.80
2023-02-21T03:06:33.368Z,2.70
2023-02-21T03:09:12.840Z,15.63
2023-02-21T03:11:50.479Z,4.03
2023-02-21T03:14:20.015Z,4.93
2023-02-21T03:16:59.914Z,3.77
2023-02-21T03:19:31.432Z,2.73
2023-02-21T03:22:01.953Z,3.57
2023-02-21T03:24:29.584Z,4.37
2023-02-21T03:27:02.302Z,5.70
2023-02-21T03:30:02.812Z,4.33
2023-02-21T03:32:37.427Z,6.40
2023-02-21T03:35:05.899Z,3.73
2023-02-21T03:37:42.866Z,3.70
2023-02-21T03:40:13.612Z,8.07
2023-02-21T03:42:40.083Z,3.17
2023-02-21T03:45:07.540Z,3.10
2023-02-21T03:47:34.134Z,4.23
2023-02-21T03:50:01.849Z,3.30
2023-02-21T03:52:28.379Z,7.00
2023-02-21T03:54:55.694Z,5.67
2023-02-21T03:57:25.036Z,6.10
2023-02-21T03:59:52.184Z,5.10
2023-02-21T04:02:19.396Z,4.17
2023-02-21T04:04:48.528Z,3.77
2023-02-21T04:07:19.268Z,8.07
2023-02-21T04:09:47.700Z,4.67
2023-02-21T04:12:20.524Z,3.40
2023-02-21T04:14:47.241Z,2.80
2023-02-21T04:17:13.784Z,3.10
2023-02-21T04:19:40.251Z,2.80
2023-02-21T04:22:06.933Z,3.97
2023-02-21T04:24:34.447Z,2.30
2023-02-21T04:27:02.199Z,3.67
2023-02-21T04:29:32.289Z,3.03
2023-02-21T04:32:03.095Z,5.27
2023-02-21T04:34:31.031Z,8.03
2023-02-21T04:36:57.651Z,6.50
2023-02-21T04:39:24.187Z,7.07
2023-02-21T04:41:50.785Z,4.10
2023-02-21T04:44:18.224Z,3.80
2023-02-21T04:46:44.966Z,8.20
2023-02-21T04:49:14.827Z,5.70
2023-02-21T04:51:41.504Z,4.90
2023-02-21T04:54:08.004Z,6.47
2023-02-21T04:56:34.559Z,2.80
2023-02-21T04:59:01.171Z,3.80
2023-02-21T05:01:30.746Z,3.90
2023-02-21T05:03:59.203Z,5.13
2023-02-21T05:06:27.626Z,4.37
2023-02-21T05:08:54.531Z,5.33
2023-02-21T05:11:21.970Z,3.70
2023-02-21T05:13:48.638Z,5.50
2023-02-21T05:16:15.328Z,4.00
2023-02-21T05:18:43.188Z,7.53
2023-02-21T05:21:09.963Z,9.13
2023-02-21T05:23:38.377Z,6.37
2023-02-21T05:26:08.948Z,5.97
2023-02-21T05:28:36.592Z,2.40
2023-02-21T05:31:03.983Z,6.23
2023-02-21T05:33:30.878Z,4.70
2023-02-21T05:35:57.388Z,3.90
2023-02-21T05:38:24.796Z,7.03
2023-02-21T05:40:51.907Z,8.00
2023-02-21T05:43:18.455Z,6.50
2023-02-21T05:45:45.052Z,3.83
2023-02-21T05:48:11.825Z,4.17
2023-02-21T05:50:39.599Z,5.43
2023-02-21T05:53:07.016Z,2.30
2023-02-21T05:55:33.615Z,3.93
2023-02-21T05:58:00.092Z,4.20
2023-02-21T06:00:29.090Z,4.00
2023-02-21T06:02:56.820Z,6.70
2023-02-21T06:05:24.006Z,4.10
2023-02-21T06:07:50.485Z,3.30
2023-02-21T06:10:19.379Z,4.73
2023-02-21T06:12:45.871Z,4.57
2023-02-21T06:15:13.109Z,3.93
2023-02-21T06:17:41.159Z,4.30
2023-02-21T06:20:10.616Z,4.07
2023-02-21T06:22:37.025Z,3.10
2023-02-21T06:25:03.925Z,7.97
2023-02-21T06:27:30.332Z,5.53
2023-02-21T06:29:56.820Z,4.50
2023-02-21T06:32:23.306Z,5.00
2023-02-21T06:34:49.748Z,3.63
2023-02-21T06:37:18.171Z,4.80
2023-02-21T06:39:45.278Z,5.93
2023-02-21T06:42:16.438Z,4.80
2023-02-21T06:44:47.260Z,4.57
2023-02-21T06:47:14.723Z,4.60
2023-02-21T06:49:41.576Z,6.10
2023-02-21T06:52:11.277Z,3.27
2023-02-21T06:54:38.384Z,7.87
2023-02-21T06:57:05.695Z,3.27
2023-02-21T06:59:32.528Z,4.23
2023-02-21T07:02:02.913Z,5.80
2023-02-21T07:04:29.377Z,4.33
2023-02-21T07:06:55.886Z,5.03
2023-02-21T07:09:22.382Z,5.13
2023-02-21T07:11:48.857Z,4.80
2023-02-21T07:14:15.319Z,5.93
2023-02-21T07:16:41.776Z,4.73
2023-02-21T07:19:08.569Z,4.67
2023-02-21T07:24:06.769Z,6.43
2023-02-21T07:26:33.281Z,10.27
2023-02-21T07:28:59.820Z,6.70
2023-02-21T07:31:26.957Z,3.40
2023-02-21T07:33:53.459Z,5.50
2023-02-21T07:36:19.972Z,5.93
2023-02-21T07:38:46.436Z,4.17
2023-02-21T07:41:15.726Z,6.17
2023-02-21T07:43:42.316Z,6.40
2023-02-21T07:46:13.930Z,6.60
2023-02-21T07:48:40.668Z,8.20
2023-02-21T07:51:08.146Z,6.50
2023-02-21T07:53:34.863Z,7.47
2023-02-21T07:56:02.736Z,12.07
2023-02-21T07:58:29.263Z,4.07
2023-02-21T08:00:55.778Z,5.87
2023-02-21T08:03:23.122Z,9.27
2023-02-21T08:05:50.273Z,9.90
2023-02-21T08:08:17.222Z,6.23
2023-02-21T08:10:43.747Z,5.90
2023-02-21T08:13:10.216Z,10.90
2023-02-21T08:15:36.646Z,3.87
2023-02-21T08:18:03.104Z,5.30
2023-02-21T08:20:29.578Z,8.70
2023-02-21T08:22:55.994Z,9.97
2023-02-21T08:25:22.432Z,9.20
2023-02-21T08:27:53.546Z,3.50
2023-02-21T08:30:20.213Z,3.13
2023-02-21T08:32:52.700Z,6.77
2023-02-21T08:35:20.094Z,3.80
2023-02-21T08:37:47.735Z,6.80
2023-02-21T08:40:15.954Z,10.43
2023-02-21T08:42:42.380Z,9.07
2023-02-21T08:45:16.469Z,5.47
2023-02-21T08:47:43.197Z,4.53
2023-02-21T08:50:09.806Z,8.57
2023-02-21T08:52:36.592Z,6.13
2023-02-21T08:55:03.563Z,5.03
2023-02-21T08:57:30.005Z,12.00
2023-02-21T08:59:56.516Z,5.83
2023-02-21T09:02:25.326Z,7.60
2023-02-21T09:04:53.098Z,2.70
2023-02-21T09:07:21.644Z,8.67
2023-02-21T09:09:48.475Z,7.00
2023-02-21T09:12:17.300Z,4.50
2023-02-21T09:14:43.932Z,4.33
2023-02-21T09:17:12.976Z,3.10
2023-02-21T09:19:40.206Z,4.20
2023-02-21T09:22:08.584Z,3.00
2023-02-21T09:24:35.344Z,4.10
2023-02-21T09:27:04.638Z,4.70
2023-02-21T09:29:44.836Z,4.50
2023-02-21T09:32:11.984Z,4.33
2023-02-21T09:34:38.743Z,4.90
2023-02-21T09:37:06.069Z,5.57
2023-02-21T09:39:32.503Z,3.17
2023-02-21T09:41:59.068Z,4.90
2023-02-21T09:44:27.848Z,1.77
2023-02-21T09:47:07.511Z,4.83
2023-02-21T09:49:39.106Z,2.60
2023-02-21T09:52:07.567Z,4.80
2023-02-21T09:54:38.804Z,8.03
2023-02-21T09:57:10.981Z,2.20
2023-02-21T09:59:37.441Z,8.30
2023-02-21T10:02:29.090Z,2.47
2023-02-21T10:05:34.052Z,6.23
2023-02-21T10:08:15.878Z,2.47
2023-02-21T10:10:48.622Z,1.83
2023-02-21T10:13:40.443Z,5.90
2023-02-21T10:16:21.272Z,3.30
2023-02-21T10:19:09.032Z,2.13
2023-02-21T10:21:40.868Z,6.73
2023-02-21T10:24:17.070Z,1.90
2023-02-21T10:26:52.789Z,2.23
2023-02-21T10:29:30.288Z,9.37
2023-02-21T10:32:03.369Z,3.90
2023-02-21T10:34:32.576Z,4.77
2023-02-21T10:37:15.357Z,3.10
2023-02-21T10:39:46.308Z,6.60
2023-02-21T10:42:21.635Z,2.50
2023-02-21T10:44:49.161Z,2.30
2023-02-21T10:47:24.265Z,2.93
2023-02-21T10:50:06.260Z,2.37
2023-02-21T10:52:48.886Z,4.10
2023-02-21T10:55:32.306Z,6.80
2023-02-21T10:58:08.975Z,1.37
2023-02-21T11:00:38.743Z,3.80
2023-02-21T11:03:27.468Z,6.37
2023-02-21T11:05:59.671Z,4.47
2023-02-21T11:08:35.294Z,5.10
2023-02-21T11:11:02.664Z,4.00
2023-02-21T11:13:30.300Z,3.40
2023-02-21T11:16:11.767Z,2.90
2023-02-21T11:18:38.362Z,2.67
2023-02-21T11:21:19.295Z,1.47
2023-02-21T11:23:47.804Z,3.87
2023-02-21T11:26:15.470Z,4.10
2023-02-21T11:28:47.342Z,4.50
2023-02-21T11:31:28.219Z,5.03
2023-02-21T11:34:01.690Z,1.90
2023-02-21T11:36:40.352Z,1.97
2023-02-21T11:39:27.869Z,1.40
2023-02-21T11:41:56.452Z,1.50
2023-02-21T11:44:41.129Z,1.47
2023-02-21T11:47:16.769Z,1.60
2023-02-21T11:50:04.033Z,8.93
2023-02-21T11:52:48.144Z,2.70
2023-02-21T11:55:18.030Z,2.07
2023-02-21T11:58:09.319Z,3.43
2023-02-21T12:00:45.273Z,1.53
2023-02-21T12:03:26.965Z,2.43
2023-02-21T12:05:56.462Z,1.20
2023-02-21T12:08:39.478Z,2.27
2023-02-21T12:11:22.868Z,1.60
2023-02-21T12:14:03.278Z,2.80
2023-02-21T12:16:50.335Z,1.30
2023-02-21T12:19:41.618Z,2.10
2023-02-21T12:22:28.701Z,2.00
2023-02-21T12:25:13.364Z,2.40
2023-02-21T12:28:04.526Z,1.87
2023-02-21T12:30:49.816Z,7.07
2023-02-21T12:33:16.243Z,1.97
2023-02-21T12:36:15.650Z,2.93
2023-02-21T12:38:53.768Z,2.23
2023-02-21T12:41:35.577Z,1.60
2023-02-21T12:44:36.576Z,3.53
2023-02-21T12:47:12.011Z,3.13
2023-02-21T12:49:58.205Z,3.33
2023-02-21T12:52:30.875Z,5.20
2023-02-21T12:55:07.101Z,6.10
2023-02-21T12:57:45.836Z,4.60
2023-02-21T13:00:17.514Z,2.43
2023-02-21T13:03:00.045Z,1.37
2023-02-21T13:05:37.444Z,4.97
2023-02-21T13:08:33.054Z,9.13
2023-02-21T13:11:29.405Z,1.30
2023-02-21T13:13:57.981Z,6.37
2023-02-21T13:16:25.153Z,2.10
2023-02-21T13:18:59.486Z,2.20
2023-02-21T13:22:03.780Z,3.63
2023-02-21T13:25:12.509Z,1.83
2023-02-21T13:27:46.647Z,1.70
2023-02-21T13:30:31.448Z,1.90
2023-02-21T13:33:00.715Z,1.30
2023-02-21T13:35:32.590Z,2.83
2023-02-21T13:38:01.160Z,1.73
2023-02-21T13:40:44.023Z,1.60
2023-02-21T13:43:16.102Z,2.40
2023-02-21T13:45:42.563Z,7.80
2023-02-21T13:48:08.924Z,2.70
2023-02-21T13:50:38.784Z,1.53
2023-02-21T13:53:08.533Z,1.53
2023-02-21T13:55:36.843Z,1.43
2023-02-21T13:58:05.207Z,2.93
2023-02-21T14:00:31.691Z,2.10
2023-02-21T14:03:28.415Z,1.40
2023-02-21T14:05:54.789Z,2.13
2023-02-21T14:08:32.448Z,1.83
2023-02-21T14:11:04.957Z,3.87
2023-02-21T14:13:46.659Z,2.07
2023-02-21T14:16:13.295Z,8.60
2023-02-21T14:18:45.308Z,1.10
2023-02-21T14:21:30.470Z,5.10
2023-02-21T14:24:09.035Z,1.47
2023-02-21T14:26:42.966Z,1.67
2023-02-21T14:29:09.472Z,1.23
2023-02-21T14:31:55.570Z,6.40
2023-02-21T14:34:42.618Z,5.43
2023-02-21T14:37:17.239Z,1.73
2023-02-21T14:39:48.866Z,0.90
2023-02-21T14:42:34.017Z,1.30
2023-02-21T14:45:09.570Z,2.17
2023-02-21T14:47:42.062Z,2.23
2023-02-21T14:50:47.472Z,1.77
2023-02-21T14:53:40.365Z,2.00
2023-02-21T14:56:45.272Z,2.77
2023-02-21T14:59:33.996Z,1.93
2023-02-21T15:02:34.468Z,1.50
2023-02-21T15:05:17.809Z,2.50
2023-02-21T15:08:05.272Z,1.87
2023-02-21T15:10:41.734Z,1.10
2023-02-21T15:13:30.833Z,2.00
2023-02-21T15:16:06.699Z,2.63
2023-02-21T15:18:38.944Z,1.40
2023-02-21T15:21:15.376Z,1.53
2023-02-21T15:23:44.636Z,1.33
2023-02-21T15:26:22.035Z,6.00
2023-02-21T15:29:12.422Z,0.87
2023-02-21T15:31:48.287Z,1.10
2023-02-21T15:34:29.780Z,3.70
2023-02-21T15:37:11.157Z,0.90
2023-02-21T15:39:40.581Z,1.93
2023-02-21T15:42:10.472Z,1.40
2023-02-21T15:44:39.452Z,2.80
2023-02-21T15:47:17.845Z,1.53
2023-02-21T15:50:05.890Z,1.00
2023-02-21T15:52:41.704Z,3.13
2023-02-21T15:55:18.549Z,3.70
2023-02-21T15:57:58.858Z,1.57
2023-02-21T16:00:32.939Z,1.10
2023-02-21T16:03:36.567Z,1.27
2023-02-21T16:06:15.130Z,3.67
2023-02-21T16:09:05.566Z,4.57
2023-02-21T16:11:47.032Z,2.07
2023-02-21T16:14:20.689Z,3.33
2023-02-21T16:16:53.708Z,1.40
2023-02-21T16:19:23.288Z,1.50
2023-02-21T16:21:51.079Z,2.63
2023-02-21T16:24:29.869Z,4.30
2023-02-21T16:27:09.768Z,2.67
2023-02-21T16:29:36.299Z,1.47
2023-02-21T16:32:03.346Z,1.60
2023-02-21T16:34:32.709Z,1.73
2023-02-21T16:37:05.303Z,9.63
2023-02-21T16:39:31.952Z,4.20
2023-02-21T16:41:58.511Z,2.10
2023-02-21T16:44:25.151Z,4.33
2023-02-21T16:46:56.542Z,1.73
2023-02-21T16:49:23.068Z,3.07
2023-02-21T16:51:49.929Z,2.30
2023-02-21T16:54:17.442Z,1.70
2023-02-21T16:56:46.441Z,4.67
2023-02-21T16:59:17.109Z,1.77
2023-02-21T17:01:43.793Z,2.57
2023-02-21T17:04:16.329Z,1.87
2023-02-21T17:06:46.608Z,2.43
2023-02-21T17:09:19.853Z,4.57
2023-02-21T17:11:46.443Z,3.50
2023-02-21T17:14:13.273Z,3.20
2023-02-21T17:16:39.760Z,4.30
2023-02-21T17:19:06.229Z,3.07
2023-02-21T17:21:32.708Z,9.20
2023-02-21T17:23:59.163Z,2.33
2023-02-21T17:26:25.646Z,4.00
2023-02-21T17:28:52.363Z,4.17
2023-02-21T17:31:19.591Z,8.20
2023-02-21T17:33:46.425Z,5.03
2023-02-21T17:36:18.044Z,3.97
2023-02-21T17:38:45.128Z,4.93
2023-02-21T17:41:12.458Z,3.60
2023-02-21T17:43:39.334Z,4.37
2023-02-21T17:46:10.661Z,9.30
2023-02-21T17:48:37.772Z,6.30
2023-02-21T17:51:04.642Z,2.53
2023-02-21T17:53:31.286Z,2.67
2023-02-21T17:55:59.747Z,4.30
2023-02-21T17:58:27.311Z,3.83
2023-02-21T18:00:56.692Z,3.80
2023-02-21T18:03:24.328Z,7.90
2023-02-21T18:05:51.521Z,9.60
2023-02-21T18:08:18.973Z,5.50
2023-02-21T18:10:48.379Z,6.43
2023-02-21T18:13:24.403Z,3.03
2023-02-21T18:15:50.853Z,5.13
2023-02-21T18:18:17.922Z,3.97
2023-02-21T18:20:45.853Z,4.10
2023-02-21T18:23:12.696Z,6.33
2023-02-21T18:25:39.184Z,4.87
2023-02-21T18:28:05.737Z,14.73
2023-02-21T18:30:32.398Z,5.13
2023-02-21T18:32:59.937Z,5.10
2023-02-21T18:35:26.466Z,6.70
2023-02-21T18:37:52.902Z,7.10
2023-02-21T18:40:19.641Z,6.47
2023-02-21T18:42:47.729Z,14.53
2023-02-21T18:45:14.180Z,22.33
2023-02-21T18:47:40.677Z,14.67
2023-02-21T18:50:07.879Z,18.23
2023-02-21T18:52:34.426Z,14.13
2023-02-21T18:55:03.714Z,16.40
2023-02-21T18:57:30.599Z,13.23
2023-02-21T18:59:58.307Z,24.13
2023-02-21T19:02:25.416Z,18.43
2023-02-21T19:04:51.867Z,17.40
2023-02-21T19:07:18.373Z,22.80
2023-02-21T19:09:47.480Z,35.33
2023-02-21T19:12:14.906Z,23.97
2023-02-21T19:14:41.545Z,40.70
2023-02-21T19:17:09.283Z,46.23
2023-02-21T19:19:36.711Z,47.60
2023-02-21T19:22:03.901Z,40.27
2023-02-21T19:24:30.546Z,40.03
2023-02-21T19:26:57.064Z,30.40
2023-02-21T19:29:23.567Z,40.20
2023-02-21T19:31:50.381Z,35.80
2023-02-21T19:34:16.895Z,34.83
2023-02-21T19:36:43.469Z,29.70
2023-02-21T19:39:10.158Z,23.50
2023-02-21T19:41:36.675Z,24.57
2023-02-21T19:44:04.126Z,22.23
2023-02-21T19:46:30.941Z,30.73
2023-02-21T19:48:57.393Z,26.80
2023-02-21T19:51:25.437Z,30.43
2023-02-21T19:53:51.866Z,24.87
2023-02-21T19:56:18.328Z,30.73
2023-02-21T19:58:47.036Z,26.30
2023-02-21T20:01:13.801Z,26.50
2023-02-21T20:03:41.811Z,27.47
2023-02-21T20:06:08.472Z,25.83
2023-02-21T20:08:35.024Z,29.90
2023-02-21T20:11:01.491Z,27.73
2023-02-21T20:13:27.936Z,23.67
2023-02-21T20:15:54.381Z,31.27
2023-02-21T20:18:20.912Z,23.90
2023-02-21T20:20:49.499Z,28.43
2023-02-21T20:23:17.954Z,26.60
2023-02-21T20:25:44.653Z,27.23
2023-02-21T20:28:11.147Z,31.07
2023-02-21T20:30:38.461Z,22.47
2023-02-21T20:33:06.800Z,25.10
2023-02-21T20:35:33.678Z,25.30
2023-02-21T20:38:05.166Z,31.10
2023-02-21T20:40:35.124Z,23.50
2023-02-21T20:43:01.643Z,26.20
2023-02-21T20:45:28.229Z,22.40
2023-02-21T20:47:55.119Z,23.03
2023-02-21T20:50:26.516Z,21.07
2023-02-21T20:52:53.059Z,19.03
2023-02-21T20:55:22.129Z,18.03
2023-02-21T20:57:48.709Z,18.73
2023-02-21T21:00:15.593Z,18.00
2023-02-21T21:02:42.545Z,15.07
2023-02-21T21:05:13.517Z,12.67
2023-02-21T21:07:41.334Z,13.20
2023-02-21T21:10:11.379Z,19.80
2023-02-21T21:12:38.012Z,15.40
2023-02-21T21:15:05.361Z,20.43
2023-02-21T21:17:31.901Z,24.00
2023-02-21T21:19:58.568Z,19.63
2023-02-21T21:22:27.922Z,20.93
2023-02-21T21:24:55.661Z,19.43
2023-02-21T21:27:22.623Z,14.30
2023-02-21T21:29:49.580Z,17.33
2023-02-21T21:32:19.643Z,14.20
2023-02-21T21:34:48.940Z,30.33
2023-02-21T21:37:18.434Z,19.73
2023-02-21T21:39:49.622Z,34.57
2023-02-21T21:42:18.515Z,19.63
2023-02-21T21:44:47.392Z,21.40
2023-02-21T21:47:15.554Z,22.73
2023-02-21T21:49:42.089Z,31.70
2023-02-21T21:52:10.029Z,28.13
2023-02-21T21:54:37.560Z,26.63
2023-02-21T21:57:05.432Z,20.67
2023-02-21T21:59:32.627Z,18.40
2023-02-21T22:01:59.627Z,20.23
2023-02-21T22:04:27.136Z,18.80
2023-02-21T22:06:55.329Z,32.87
2023-02-21T22:09:22.616Z,20.30
2023-02-21T22:11:50.339Z,19.73
2023-02-21T22:14:18.576Z,23.17
2023-02-21T22:16:47.981Z,21.83
2023-02-21T22:19:15.767Z,21.70
2023-02-21T22:21:45.141Z,21.90
2023-02-21T22:24:15.192Z,24.33
2023-02-21T22:26:47.429Z,24.83
2023-02-21T22:29:16.253Z,26.40
2023-02-21T22:31:43.998Z,23.60
2023-02-21T22:34:10.762Z,26.60
2023-02-21T22:36:37.282Z,21.00
2023-02-21T22:39:11.077Z,24.53
2023-02-21T22:41:37.824Z,27.50
2023-02-21T22:44:04.412Z,24.83
2023-02-21T22:46:46.110Z,24.90
2023-02-21T22:49:12.938Z,21.13
2023-02-21T22:51:39.409Z,23.93
2023-02-21T22:54:05.950Z,27.87
2023-02-21T22:56:38.214Z,28.13
2023-02-21T22:59:08.890Z,23.30
2023-02-21T23:01:35.421Z,40.93
2023-02-21T23:04:11.841Z,27.10
2023-02-21T23:06:38.351Z,21.50
2023-02-21T23:09:12.197Z,21.17
2023-02-21T23:11:40.485Z,18.17
2023-02-21T23:14:08.001Z,23.30
2023-02-21T23:16:34.726Z,20.63
2023-02-21T23:19:01.750Z,23.77
2023-02-21T23:21:30.371Z,20.73
2023-02-21T23:23:58.172Z,15.53
2023-02-21T23:26:25.276Z,14.10
2023-02-21T23:28:51.863Z,23.70
2023-02-21T23:31:19.633Z,17.03
2023-02-21T23:33:48.709Z,20.77
2023-02-21T23:36:22.673Z,19.63
2023-02-21T23:38:50.591Z,17.10
2023-02-21T23:41:17.683Z,17.03
2023-02-21T23:43:48.131Z,17.90
2023-02-21T23:46:23.206Z,16.47
2023-02-21T23:48:53.503Z,30.90
2023-02-21T23:51:23.287Z,20.10
2023-02-21T23:53:49.716Z,19.20
2023-02-21T23:56:16.544Z,22.07
2023-02-21T23:58:46.378Z,19.57
